sensor_id;sensor_type;location;lat;lon;timestamp;P1;durP1;ratioP1;P2;durP2;ratioP2
9256;SDS011;4665;51.368;6.782;2023-03-24T00:00:16;2.53;;;1.80;;
9256;SDS011;4665;51.368;6.782;2023-03-24T00:02:44;2.60;;;1.70;;
9256;SDS011;4665;51.368;6.782;2023-03-24T00:05:11;4.77;;;2.20;;
9256;SDS011;4665;51.368;6.782;2023-03-24T00:07:38;2.50;;;1.93;;
9256;SDS011;4665;51.368;6.782;2023-03-24T00:10:09;2.70;;;2.20;;
9256;SDS011;4665;51.368;6.782;2023-03-24T00:12:36;2.63;;;2.30;;
9256;SDS011;4665;51.368;6.782;2023-03-24T00:15:04;4.57;;;2.20;;
9256;SDS011;4665;51.368;6.782;2023-03-24T00:17:31;3.00;;;1.97;;
9256;SDS011;4665;51.368;6.782;2023-03-24T00:20:00;5.80;;;2.17;;
9256;SDS011;4665;51.368;6.782;2023-03-24T00:22:26;2.40;;;2.20;;
9256;SDS011;4665;51.368;6.782;2023-03-24T00:24:52;4.10;;;2.30;;
9256;SDS011;4665;51.368;6.782;2023-03-24T00:27:18;2.20;;;2.00;;
9256;SDS011;4665;51.368;6.782;2023-03-24T00:29:44;2.63;;;2.00;;
9256;SDS011;4665;51.368;6.782;2023-03-24T00:32:09;2.97;;;2.70;;
9256;SDS011;4665;51.368;6.782;2023-03-24T00:34:34;3.43;;;2.03;;
9256;SDS011;4665;51.368;6.782;2023-03-24T00:37:04;2.10;;;2.00;;
9256;SDS011;4665;51.368;6.782;2023-03-24T00:39:30;2.27;;;2.03;;
9256;SDS011;4665;51.368;6.782;2023-03-24T00:41:59;2.07;;;1.97;;
9256;SDS011;4665;51.368;6.782;2023-03-24T00:44:28;2.27;;;1.80;;
9256;SDS011;4665;51.368;6.782;2023-03-24T00:46:53;2.07;;;1.73;;
9256;SDS011;4665;51.368;6.782;2023-03-24T00:49:22;3.30;;;1.70;;
9256;SDS011;4665;51.368;6.782;2023-03-24T00:52:06;3.10;;;2.30;;
9256;SDS011;4665;51.368;6.782;2023-03-24T00:54:34;2.47;;;1.80;;
9256;SDS011;4665;51.368;6.782;2023-03-24T00:57:00;2.97;;;2.00;;
9256;SDS011;4665;51.368;6.782;2023-03-24T00:59:27;2.33;;;2.13;;
9256;SDS011;4665;51.368;6.782;2023-03-24T01:01:53;2.37;;;2.17;;
9256;SDS011;4665;51.368;6.782;2023-03-24T01:04:20;3.30;;;2.00;;
9256;SDS011;4665;51.368;6.782;2023-03-24T01:06:50;2.93;;;2.10;;
9256;SDS011;4665;51.368;6.782;2023-03-24T01:09:16;1.97;;;1.83;;
9256;SDS011;4665;51.368;6.782;2023-03-24T01:11:42;2.10;;;1.90;;
9256;SDS011;4665;51.368;6.782;2023-03-24T01:14:08;2.10;;;1.90;;
9256;SDS011;4665;51.368;6.782;2023-03-24T01:16:35;2.00;;;1.90;;
9256;SDS011;4665;51.368;6.782;2023-03-24T01:19:00;3.10;;;2.00;;
9256;SDS011;4665;51.368;6.782;2023-03-24T01:21:26;2.50;;;2.30;;
9256;SDS011;4665;51.368;6.782;2023-03-24T01:23:52;2.00;;;1.80;;
9256;SDS011;4665;51.368;6.782;2023-03-24T01:26:17;2.17;;;2.07;;
9256;SDS011;4665;51.368;6.782;2023-03-24T01:28:43;3.10;;;2.37;;
9256;SDS011;4665;51.368;6.782;2023-03-24T01:31:09;2.67;;;2.17;;
9256;SDS011;4665;51.368;6.782;2023-03-24T01:33:36;2.20;;;2.00;;
9256;SDS011;4665;51.368;6.782;2023-03-24T01:36:02;3.20;;;2.07;;
9256;SDS011;4665;51.368;6.782;2023-03-24T01:38:29;2.90;;;2.60;;
9256;SDS011;4665;51.368;6.782;2023-03-24T01:40:54;2.27;;;2.07;;
9256;SDS011;4665;51.368;6.782;2023-03-24T01:43:24;2.83;;;2.30;;
9256;SDS011;4665;51.368;6.782;2023-03-24T01:48:39;2.10;;;2.00;;
9256;SDS011;4665;51.368;6.782;2023-03-24T01:51:14;2.37;;;2.20;;
9256;SDS011;4665;51.368;6.782;2023-03-24T01:53:47;2.10;;;2.00;;
9256;SDS011;4665;51.368;6.782;2023-03-24T01:56:20;3.80;;;2.17;;
9256;SDS011;4665;51.368;6.782;2023-03-24T01:58:48;2.20;;;2.10;;
9256;SDS011;4665;51.368;6.782;2023-03-24T02:01:17;2.40;;;2.10;;
9256;SDS011;4665;51.368;6.782;2023-03-24T02:03:44;3.23;;;2.60;;
9256;SDS011;4665;51.368;6.782;2023-03-24T02:06:10;2.60;;;2.40;;
9256;SDS011;4665;51.368;6.782;2023-03-24T02:08:46;2.70;;;2.50;;
9256;SDS011;4665;51.368;6.782;2023-03-24T02:11:16;2.80;;;2.60;;
9256;SDS011;4665;51.368;6.782;2023-03-24T02:13:43;2.30;;;2.10;;
9256;SDS011;4665;51.368;6.782;2023-03-24T02:42:05;2.90;;;2.60;;
9256;SDS011;4665;51.368;6.782;2023-03-24T02:44:55;2.67;;;2.50;;
9256;SDS011;4665;51.368;6.782;2023-03-24T02:52:45;3.00;;;2.67;;
9256;SDS011;4665;51.368;6.782;2023-03-24T02:55:19;4.00;;;2.43;;
9256;SDS011;4665;51.368;6.782;2023-03-24T03:00:40;3.00;;;2.77;;
9256;SDS011;4665;51.368;6.782;2023-03-24T03:03:35;2.67;;;2.47;;
9256;SDS011;4665;51.368;6.782;2023-03-24T03:08:34;3.30;;;3.00;;
9256;SDS011;4665;51.368;6.782;2023-03-24T03:11:02;3.00;;;2.80;;
9256;SDS011;4665;51.368;6.782;2023-03-24T03:13:38;3.00;;;2.80;;
9256;SDS011;4665;51.368;6.782;2023-03-24T03:16:09;2.87;;;2.57;;
9256;SDS011;4665;51.368;6.782;2023-03-24T03:18:47;3.20;;;2.33;;
9256;SDS011;4665;51.368;6.782;2023-03-24T03:21:17;4.03;;;2.77;;
9256;SDS011;4665;51.368;6.782;2023-03-24T03:24:32;2.40;;;2.20;;
9256;SDS011;4665;51.368;6.782;2023-03-24T03:27:02;3.00;;;2.40;;
9256;SDS011;4665;51.368;6.782;2023-03-24T03:29:34;2.40;;;2.23;;
9256;SDS011;4665;51.368;6.782;2023-03-24T03:32:03;2.80;;;2.53;;
9256;SDS011;4665;51.368;6.782;2023-03-24T03:34:36;2.37;;;2.17;;
9256;SDS011;4665;51.368;6.782;2023-03-24T03:39:57;2.10;;;1.90;;
9256;SDS011;4665;51.368;6.782;2023-03-24T03:42:26;2.80;;;2.60;;
9256;SDS011;4665;51.368;6.782;2023-03-24T03:44:52;2.27;;;2.07;;
9256;SDS011;4665;51.368;6.782;2023-03-24T03:47:17;2.17;;;2.07;;
9256;SDS011;4665;51.368;6.782;2023-03-24T03:49:45;2.50;;;2.30;;
9256;SDS011;4665;51.368;6.782;2023-03-24T03:52:11;2.33;;;1.90;;
9256;SDS011;4665;51.368;6.782;2023-03-24T03:54:38;2.40;;;2.20;;
9256;SDS011;4665;51.368;6.782;2023-03-24T03:57:05;3.30;;;2.07;;
9256;SDS011;4665;51.368;6.782;2023-03-24T03:59:32;2.40;;;2.20;;
9256;SDS011;4665;51.368;6.782;2023-03-24T04:02:00;2.70;;;2.30;;
9256;SDS011;4665;51.368;6.782;2023-03-24T04:04:48;3.50;;;2.40;;
9256;SDS011;4665;51.368;6.782;2023-03-24T04:10:18;2.20;;;2.10;;
9256;SDS011;4665;51.368;6.782;2023-03-24T04:13:03;2.83;;;2.30;;
9256;SDS011;4665;51.368;6.782;2023-03-24T04:15:55;2.83;;;2.50;;
9256;SDS011;4665;51.368;6.782;2023-03-24T04:24:00;2.67;;;2.47;;
9256;SDS011;4665;51.368;6.782;2023-03-24T04:29:21;3.00;;;2.70;;
9256;SDS011;4665;51.368;6.782;2023-03-24T04:34:55;2.80;;;2.60;;
9256;SDS011;4665;51.368;6.782;2023-03-24T04:37:27;3.10;;;2.80;;
9256;SDS011;4665;51.368;6.782;2023-03-24T04:40:03;2.90;;;2.70;;
9256;SDS011;4665;51.368;6.782;2023-03-24T04:42:36;2.63;;;2.43;;
9256;SDS011;4665;51.368;6.782;2023-03-24T04:45:06;3.43;;;2.50;;
9256;SDS011;4665;51.368;6.782;2023-03-24T04:47:35;2.70;;;2.50;;
9256;SDS011;4665;51.368;6.782;2023-03-24T04:50:07;3.30;;;2.80;;
9256;SDS011;4665;51.368;6.782;2023-03-24T04:52:35;2.60;;;2.40;;
9256;SDS011;4665;51.368;6.782;2023-03-24T04:55:12;2.43;;;2.23;;
9256;SDS011;4665;51.368;6.782;2023-03-24T04:57:45;2.30;;;2.20;;
9256;SDS011;4665;51.368;6.782;2023-03-24T05:00:10;2.87;;;2.53;;
9256;SDS011;4665;51.368;6.782;2023-03-24T05:02:36;2.53;;;2.33;;
9256;SDS011;4665;51.368;6.782;2023-03-24T05:05:02;2.40;;;2.20;;
9256;SDS011;4665;51.368;6.782;2023-03-24T05:07:27;3.67;;;2.73;;
9256;SDS011;4665;51.368;6.782;2023-03-24T05:09:53;2.90;;;2.33;;
9256;SDS011;4665;51.368;6.782;2023-03-24T05:12:18;2.47;;;2.27;;
9256;SDS011;4665;51.368;6.782;2023-03-24T05:14:44;1.70;;;1.60;;
9256;SDS011;4665;51.368;6.782;2023-03-24T05:17:09;2.53;;;2.33;;
9256;SDS011;4665;51.368;6.782;2023-03-24T05:19:35;2.97;;;2.77;;
9256;SDS011;4665;51.368;6.782;2023-03-24T05:22:01;6.03;;;3.20;;
9256;SDS011;4665;51.368;6.782;2023-03-24T05:24:26;5.47;;;3.13;;
9256;SDS011;4665;51.368;6.782;2023-03-24T05:26:51;2.93;;;1.90;;
9256;SDS011;4665;51.368;6.782;2023-03-24T05:29:17;5.40;;;2.10;;
9256;SDS011;4665;51.368;6.782;2023-03-24T05:31:42;2.47;;;1.80;;
9256;SDS011;4665;51.368;6.782;2023-03-24T05:34:09;2.80;;;2.10;;
9256;SDS011;4665;51.368;6.782;2023-03-24T05:36:34;2.53;;;1.67;;
9256;SDS011;4665;51.368;6.782;2023-03-24T05:39:00;2.57;;;2.13;;
9256;SDS011;4665;51.368;6.782;2023-03-24T05:41:25;2.27;;;1.70;;
9256;SDS011;4665;51.368;6.782;2023-03-24T05:43:51;2.23;;;2.00;;
9256;SDS011;4665;51.368;6.782;2023-03-24T05:46:16;1.97;;;1.70;;
9256;SDS011;4665;51.368;6.782;2023-03-24T05:48:41;5.30;;;2.13;;
9256;SDS011;4665;51.368;6.782;2023-03-24T05:51:07;4.73;;;1.97;;
9256;SDS011;4665;51.368;6.782;2023-03-24T05:53:32;8.97;;;3.27;;
9256;SDS011;4665;51.368;6.782;2023-03-24T05:55:58;3.33;;;2.47;;
9256;SDS011;4665;51.368;6.782;2023-03-24T05:58:23;4.13;;;2.40;;
9256;SDS011;4665;51.368;6.782;2023-03-24T06:00:49;5.47;;;2.13;;
9256;SDS011;4665;51.368;6.782;2023-03-24T06:03:14;3.27;;;2.10;;
9256;SDS011;4665;51.368;6.782;2023-03-24T06:05:41;2.50;;;2.03;;
9256;SDS011;4665;51.368;6.782;2023-03-24T06:08:09;3.87;;;2.43;;
9256;SDS011;4665;51.368;6.782;2023-03-24T06:10:36;1.97;;;1.87;;
9256;SDS011;4665;51.368;6.782;2023-03-24T06:13:01;2.83;;;2.03;;
9256;SDS011;4665;51.368;6.782;2023-03-24T06:15:27;4.00;;;2.00;;
9256;SDS011;4665;51.368;6.782;2023-03-24T06:17:52;4.67;;;1.97;;
9256;SDS011;4665;51.368;6.782;2023-03-24T06:20:21;2.50;;;1.90;;
9256;SDS011;4665;51.368;6.782;2023-03-24T06:22:46;4.73;;;1.93;;
9256;SDS011;4665;51.368;6.782;2023-03-24T06:25:14;3.77;;;1.50;;
9256;SDS011;4665;51.368;6.782;2023-03-24T06:27:41;4.07;;;1.50;;
9256;SDS011;4665;51.368;6.782;2023-03-24T06:30:10;2.97;;;1.80;;
9256;SDS011;4665;51.368;6.782;2023-03-24T06:32:37;4.97;;;2.03;;
9256;SDS011;4665;51.368;6.782;2023-03-24T06:35:02;5.23;;;2.10;;
9256;SDS011;4665;51.368;6.782;2023-03-24T06:37:28;5.30;;;2.33;;
9256;SDS011;4665;51.368;6.782;2023-03-24T06:39:54;4.87;;;1.60;;
9256;SDS011;4665;51.368;6.782;2023-03-24T06:42:19;4.30;;;2.20;;
9256;SDS011;4665;51.368;6.782;2023-03-24T06:44:45;5.60;;;1.80;;
9256;SDS011;4665;51.368;6.782;2023-03-24T06:47:10;7.13;;;2.10;;
9256;SDS011;4665;51.368;6.782;2023-03-24T06:49:36;3.70;;;1.90;;
9256;SDS011;4665;51.368;6.782;2023-03-24T06:52:02;4.73;;;2.10;;
9256;SDS011;4665;51.368;6.782;2023-03-24T06:54:27;3.30;;;1.90;;
9256;SDS011;4665;51.368;6.782;2023-03-24T06:56:53;6.23;;;2.10;;
9256;SDS011;4665;51.368;6.782;2023-03-24T06:59:18;6.37;;;2.23;;
9256;SDS011;4665;51.368;6.782;2023-03-24T07:01:47;4.43;;;2.50;;
9256;SDS011;4665;51.368;6.782;2023-03-24T07:04:14;5.30;;;2.43;;
9256;SDS011;4665;51.368;6.782;2023-03-24T07:06:39;8.20;;;2.43;;
9256;SDS011;4665;51.368;6.782;2023-03-24T07:09:06;6.50;;;2.13;;
9256;SDS011;4665;51.368;6.782;2023-03-24T07:11:32;2.67;;;1.60;;
9256;SDS011;4665;51.368;6.782;2023-03-24T07:13:57;2.83;;;1.73;;
9256;SDS011;4665;51.368;6.782;2023-03-24T07:16:22;4.40;;;2.07;;
9256;SDS011;4665;51.368;6.782;2023-03-24T07:18:49;3.87;;;1.67;;
9256;SDS011;4665;51.368;6.782;2023-03-24T07:21:15;8.03;;;2.00;;
9256;SDS011;4665;51.368;6.782;2023-03-24T07:23:40;6.90;;;2.37;;
9256;SDS011;4665;51.368;6.782;2023-03-24T07:26:06;7.60;;;2.07;;
9256;SDS011;4665;51.368;6.782;2023-03-24T07:28:31;5.43;;;2.17;;
9256;SDS011;4665;51.368;6.782;2023-03-24T07:30:56;5.00;;;2.00;;
9256;SDS011;4665;51.368;6.782;2023-03-24T07:33:25;6.10;;;1.97;;
9256;SDS011;4665;51.368;6.782;2023-03-24T07:35:54;4.20;;;1.97;;
9256;SDS011;4665;51.368;6.782;2023-03-24T07:38:21;2.83;;;1.50;;
9256;SDS011;4665;51.368;6.782;2023-03-24T07:40:46;3.00;;;1.60;;
9256;SDS011;4665;51.368;6.782;2023-03-24T07:43:12;6.97;;;2.20;;
9256;SDS011;4665;51.368;6.782;2023-03-24T07:45:38;5.90;;;1.70;;
9256;SDS011;4665;51.368;6.782;2023-03-24T07:48:03;2.20;;;1.50;;
9256;SDS011;4665;51.368;6.782;2023-03-24T07:50:29;3.67;;;1.70;;
9256;SDS011;4665;51.368;6.782;2023-03-24T07:52:55;3.57;;;1.87;;
9256;SDS011;4665;51.368;6.782;2023-03-24T07:55:21;5.97;;;2.17;;
9256;SDS011;4665;51.368;6.782;2023-03-24T07:57:47;5.60;;;2.10;;
9256;SDS011;4665;51.368;6.782;2023-03-24T08:00:13;3.93;;;2.00;;
9256;SDS011;4665;51.368;6.782;2023-03-24T08:02:42;10.10;;;2.30;;
9256;SDS011;4665;51.368;6.782;2023-03-24T08:05:09;3.23;;;1.60;;
9256;SDS011;4665;51.368;6.782;2023-03-24T08:07:38;9.70;;;2.20;;
9256;SDS011;4665;51.368;6.782;2023-03-24T08:10:08;4.80;;;1.80;;
9256;SDS011;4665;51.368;6.782;2023-03-24T08:12:34;5.73;;;1.93;;
9256;SDS011;4665;51.368;6.782;2023-03-24T08:15:00;4.93;;;2.20;;
9256;SDS011;4665;51.368;6.782;2023-03-24T08:17:25;5.13;;;1.90;;
9256;SDS011;4665;51.368;6.782;2023-03-24T08:19:51;7.80;;;1.97;;
9256;SDS011;4665;51.368;6.782;2023-03-24T08:22:16;6.33;;;1.93;;
9256;SDS011;4665;51.368;6.782;2023-03-24T08:24:41;8.00;;;2.30;;
9256;SDS011;4665;51.368;6.782;2023-03-24T08:27:07;6.70;;;2.50;;
9256;SDS011;4665;51.368;6.782;2023-03-24T08:29:32;7.30;;;2.67;;
9256;SDS011;4665;51.368;6.782;2023-03-24T08:32:01;7.47;;;2.50;;
9256;SDS011;4665;51.368;6.782;2023-03-24T08:34:31;5.03;;;2.37;;
9256;SDS011;4665;51.368;6.782;2023-03-24T08:36:56;5.97;;;1.97;;
9256;SDS011;4665;51.368;6.782;2023-03-24T08:39:22;4.60;;;2.10;;
9256;SDS011;4665;51.368;6.782;2023-03-24T08:41:48;7.00;;;2.30;;
9256;SDS011;4665;51.368;6.782;2023-03-24T08:44:14;4.60;;;2.23;;
9256;SDS011;4665;51.368;6.782;2023-03-24T08:46:40;6.77;;;2.60;;
9256;SDS011;4665;51.368;6.782;2023-03-24T08:49:06;8.10;;;2.10;;
9256;SDS011;4665;51.368;6.782;2023-03-24T08:51:31;6.37;;;2.57;;
9256;SDS011;4665;51.368;6.782;2023-03-24T08:53:57;7.23;;;2.70;;
9256;SDS011;4665;51.368;6.782;2023-03-24T08:56:23;7.00;;;2.50;;
9256;SDS011;4665;51.368;6.782;2023-03-24T08:58:49;9.20;;;2.60;;
9256;SDS011;4665;51.368;6.782;2023-03-24T09:01:17;8.77;;;2.50;;
9256;SDS011;4665;51.368;6.782;2023-03-24T09:03:44;4.10;;;2.17;;
9256;SDS011;4665;51.368;6.782;2023-03-24T09:06:11;7.47;;;2.50;;
9256;SDS011;4665;51.368;6.782;2023-03-24T09:08:37;4.37;;;2.20;;
9256;SDS011;4665;51.368;6.782;2023-03-24T09:11:03;7.53;;;2.10;;
9256;SDS011;4665;51.368;6.782;2023-03-24T09:13:29;3.13;;;1.80;;
9256;SDS011;4665;51.368;6.782;2023-03-24T09:15:57;7.40;;;2.40;;
9256;SDS011;4665;51.368;6.782;2023-03-24T09:18:25;8.07;;;2.13;;
9256;SDS011;4665;51.368;6.782;2023-03-24T09:20:51;8.50;;;2.67;;
9256;SDS011;4665;51.368;6.782;2023-03-24T09:23:18;12.40;;;2.40;;
9256;SDS011;4665;51.368;6.782;2023-03-24T09:25:46;5.60;;;2.43;;
9256;SDS011;4665;51.368;6.782;2023-03-24T09:28:13;5.50;;;2.30;;
9256;SDS011;4665;51.368;6.782;2023-03-24T09:30:40;8.57;;;2.77;;
9256;SDS011;4665;51.368;6.782;2023-03-24T09:33:06;7.03;;;2.53;;
9256;SDS011;4665;51.368;6.782;2023-03-24T09:35:32;7.80;;;2.93;;
9256;SDS011;4665;51.368;6.782;2023-03-24T09:37:57;5.27;;;1.90;;
9256;SDS011;4665;51.368;6.782;2023-03-24T09:40:23;8.07;;;2.50;;
9256;SDS011;4665;51.368;6.782;2023-03-24T09:43:02;8.03;;;2.47;;
9256;SDS011;4665;51.368;6.782;2023-03-24T09:45:41;7.67;;;2.30;;
9256;SDS011;4665;51.368;6.782;2023-03-24T09:48:20;5.10;;;2.13;;
9256;SDS011;4665;51.368;6.782;2023-03-24T09:54:14;8.10;;;2.20;;
9256;SDS011;4665;51.368;6.782;2023-03-24T09:56:46;7.93;;;2.70;;
9256;SDS011;4665;51.368;6.782;2023-03-24T09:59:31;6.30;;;2.23;;
9256;SDS011;4665;51.368;6.782;2023-03-24T10:02:00;5.50;;;2.00;;
9256;SDS011;4665;51.368;6.782;2023-03-24T10:04:26;5.50;;;2.40;;
9256;SDS011;4665;51.368;6.782;2023-03-24T10:07:06;6.80;;;2.20;;
9256;SDS011;4665;51.368;6.782;2023-03-24T10:09:40;9.70;;;2.53;;
9256;SDS011;4665;51.368;6.782;2023-03-24T10:12:10;8.00;;;2.37;;
9256;SDS011;4665;51.368;6.782;2023-03-24T10:14:52;5.17;;;1.90;;
9256;SDS011;4665;51.368;6.782;2023-03-24T10:28:29;5.37;;;2.17;;
9256;SDS011;4665;51.368;6.782;2023-03-24T10:31:04;7.93;;;2.60;;
9256;SDS011;4665;51.368;6.782;2023-03-24T10:33:35;3.93;;;1.90;;
9256;SDS011;4665;51.368;6.782;2023-03-24T10:36:05;3.77;;;1.77;;
9256;SDS011;4665;51.368;6.782;2023-03-24T10:38:35;6.40;;;2.40;;
9256;SDS011;4665;51.368;6.782;2023-03-24T10:41:00;4.97;;;2.10;;
9256;SDS011;4665;51.368;6.782;2023-03-24T10:43:26;5.97;;;1.90;;
9256;SDS011;4665;51.368;6.782;2023-03-24T10:45:54;5.97;;;2.00;;
9256;SDS011;4665;51.368;6.782;2023-03-24T10:51:06;4.13;;;1.80;;
9256;SDS011;4665;51.368;6.782;2023-03-24T10:53:37;6.30;;;2.27;;
9256;SDS011;4665;51.368;6.782;2023-03-24T10:56:03;6.37;;;2.37;;
9256;SDS011;4665;51.368;6.782;2023-03-24T10:58:35;5.40;;;2.07;;
9256;SDS011;4665;51.368;6.782;2023-03-24T11:03:52;5.00;;;2.07;;
9256;SDS011;4665;51.368;6.782;2023-03-24T11:06:28;5.97;;;2.33;;
9256;SDS011;4665;51.368;6.782;2023-03-24T11:09:08;6.47;;;2.00;;
9256;SDS011;4665;51.368;6.782;2023-03-24T11:11:44;6.13;;;2.30;;
9256;SDS011;4665;51.368;6.782;2023-03-24T11:14:18;5.57;;;2.30;;
9256;SDS011;4665;51.368;6.782;2023-03-24T11:16:48;8.67;;;2.13;;
9256;SDS011;4665;51.368;6.782;2023-03-24T11:19:23;4.53;;;2.00;;
9256;SDS011;4665;51.368;6.782;2023-03-24T11:21:50;6.13;;;2.37;;
9256;SDS011;4665;51.368;6.782;2023-03-24T11:24:19;5.93;;;2.37;;
9256;SDS011;4665;51.368;6.782;2023-03-24T11:26:48;6.77;;;2.50;;
9256;SDS011;4665;51.368;6.782;2023-03-24T11:29:26;5.87;;;2.40;;
9256;SDS011;4665;51.368;6.782;2023-03-24T11:32:01;9.50;;;2.27;;
9256;SDS011;4665;51.368;6.782;2023-03-24T11:37:07;4.50;;;2.37;;
9256;SDS011;4665;51.368;6.782;2023-03-24T11:39:37;6.83;;;2.40;;
9256;SDS011;4665;51.368;6.782;2023-03-24T11:49:54;3.47;;;1.70;;
9256;SDS011;4665;51.368;6.782;2023-03-24T11:52:35;7.73;;;2.47;;
9256;SDS011;4665;51.368;6.782;2023-03-24T11:55:13;7.20;;;2.50;;
9256;SDS011;4665;51.368;6.782;2023-03-24T11:57:59;6.80;;;2.00;;
9256;SDS011;4665;51.368;6.782;2023-03-24T12:00:42;4.90;;;1.87;;
9256;SDS011;4665;51.368;6.782;2023-03-24T12:36:23;5.73;;;2.47;;
9256;SDS011;4665;51.368;6.782;2023-03-24T12:44:59;7.00;;;2.17;;
9256;SDS011;4665;51.368;6.782;2023-03-24T12:47:42;6.23;;;2.27;;
9256;SDS011;4665;51.368;6.782;2023-03-24T12:50:16;4.00;;;2.00;;
9256;SDS011;4665;51.368;6.782;2023-03-24T12:53:13;5.67;;;2.43;;
9256;SDS011;4665;51.368;6.782;2023-03-24T12:56:02;4.57;;;2.60;;
9256;SDS011;4665;51.368;6.782;2023-03-24T12:58:37;3.17;;;1.90;;
9256;SDS011;4665;51.368;6.782;2023-03-24T13:01:15;4.10;;;2.20;;
9256;SDS011;4665;51.368;6.782;2023-03-24T13:04:13;5.13;;;2.60;;
9256;SDS011;4665;51.368;6.782;2023-03-24T13:09:55;2.43;;;1.87;;
9256;SDS011;4665;51.368;6.782;2023-03-24T13:15:17;6.67;;;2.57;;
9256;SDS011;4665;51.368;6.782;2023-03-24T13:20:25;6.40;;;2.07;;
9256;SDS011;4665;51.368;6.782;2023-03-24T13:22:56;6.63;;;2.13;;
9256;SDS011;4665;51.368;6.782;2023-03-24T13:25:36;4.77;;;1.80;;
9256;SDS011;4665;51.368;6.782;2023-03-24T13:28:12;4.93;;;2.17;;
9256;SDS011;4665;51.368;6.782;2023-03-24T13:30:43;3.07;;;1.63;;
9256;SDS011;4665;51.368;6.782;2023-03-24T13:33:13;5.23;;;1.50;;
9256;SDS011;4665;51.368;6.782;2023-03-24T13:41:11;3.73;;;1.50;;
9256;SDS011;4665;51.368;6.782;2023-03-24T13:43:48;5.23;;;1.40;;
9256;SDS011;4665;51.368;6.782;2023-03-24T13:46:15;4.60;;;1.43;;
9256;SDS011;4665;51.368;6.782;2023-03-24T13:48:42;3.60;;;1.30;;
9256;SDS011;4665;51.368;6.782;2023-03-24T13:56:35;2.00;;;1.50;;
9256;SDS011;4665;51.368;6.782;2023-03-24T13:59:05;2.00;;;1.13;;
9256;SDS011;4665;51.368;6.782;2023-03-24T14:09:14;5.60;;;1.90;;
9256;SDS011;4665;51.368;6.782;2023-03-24T14:11:43;3.10;;;1.47;;
9256;SDS011;4665;51.368;6.782;2023-03-24T14:16:42;3.77;;;1.67;;
9256;SDS011;4665;51.368;6.782;2023-03-24T14:19:31;2.10;;;1.20;;
9256;SDS011;4665;51.368;6.782;2023-03-24T14:22:08;2.33;;;1.10;;
9256;SDS011;4665;51.368;6.782;2023-03-24T14:24:38;3.20;;;1.27;;
9256;SDS011;4665;51.368;6.782;2023-03-24T14:27:19;1.67;;;1.10;;
9256;SDS011;4665;51.368;6.782;2023-03-24T14:33:19;1.70;;;1.10;;
9256;SDS011;4665;51.368;6.782;2023-03-24T14:35:35;3.67;;;1.40;;
9256;SDS011;4665;51.368;6.782;2023-03-24T14:40:39;2.33;;;1.70;;
9256;SDS011;4665;51.368;6.782;2023-03-24T14:43:26;4.17;;;1.87;;
9256;SDS011;4665;51.368;6.782;2023-03-24T14:48:57;3.97;;;2.07;;
9256;SDS011;4665;51.368;6.782;2023-03-24T14:54:01;1.83;;;1.50;;
9256;SDS011;4665;51.368;6.782;2023-03-24T14:56:32;2.13;;;1.30;;
9256;SDS011;4665;51.368;6.782;2023-03-24T14:59:07;3.33;;;1.60;;
9256;SDS011;4665;51.368;6.782;2023-03-24T15:01:41;3.83;;;1.63;;
9256;SDS011;4665;51.368;6.782;2023-03-24T15:04:13;3.50;;;1.70;;
9256;SDS011;4665;51.368;6.782;2023-03-24T15:06:45;2.93;;;1.93;;
9256;SDS011;4665;51.368;6.782;2023-03-24T15:09:14;3.23;;;1.97;;
9256;SDS011;4665;51.368;6.782;2023-03-24T15:11:41;2.93;;;1.70;;
9256;SDS011;4665;51.368;6.782;2023-03-24T15:14:17;1.87;;;1.60;;
9256;SDS011;4665;51.368;6.782;2023-03-24T15:16:50;4.03;;;2.13;;
9256;SDS011;4665;51.368;6.782;2023-03-24T15:19:28;3.20;;;1.77;;
9256;SDS011;4665;51.368;6.782;2023-03-24T15:24:27;4.50;;;1.50;;
9256;SDS011;4665;51.368;6.782;2023-03-24T15:29:35;3.00;;;1.87;;
9256;SDS011;4665;51.368;6.782;2023-03-24T15:32:03;3.10;;;1.60;;
9256;SDS011;4665;51.368;6.782;2023-03-24T15:36:59;3.73;;;1.43;;
9256;SDS011;4665;51.368;6.782;2023-03-24T15:39:37;2.33;;;1.33;;
9256;SDS011;4665;51.368;6.782;2023-03-24T15:42:05;3.90;;;1.40;;
9256;SDS011;4665;51.368;6.782;2023-03-24T15:44:35;4.53;;;1.67;;
9256;SDS011;4665;51.368;6.782;2023-03-24T15:47:02;5.70;;;1.80;;
9256;SDS011;4665;51.368;6.782;2023-03-24T15:49:31;7.70;;;3.07;;
9256;SDS011;4665;51.368;6.782;2023-03-24T15:52:00;5.23;;;2.10;;
9256;SDS011;4665;51.368;6.782;2023-03-24T15:54:29;4.57;;;1.67;;
9256;SDS011;4665;51.368;6.782;2023-03-24T15:56:58;2.87;;;1.97;;
9256;SDS011;4665;51.368;6.782;2023-03-24T15:59:48;4.17;;;1.97;;
9256;SDS011;4665;51.368;6.782;2023-03-24T16:02:32;1.97;;;1.33;;
9256;SDS011;4665;51.368;6.782;2023-03-24T16:05:03;2.90;;;1.27;;
9256;SDS011;4665;51.368;6.782;2023-03-24T16:07:37;2.43;;;1.70;;
9256;SDS011;4665;51.368;6.782;2023-03-24T16:10:06;2.93;;;1.60;;
9256;SDS011;4665;51.368;6.782;2023-03-24T16:12:49;2.27;;;1.33;;
9256;SDS011;4665;51.368;6.782;2023-03-24T16:15:15;1.63;;;1.10;;
9256;SDS011;4665;51.368;6.782;2023-03-24T16:17:40;1.63;;;0.80;;
9256;SDS011;4665;51.368;6.782;2023-03-24T16:20:08;1.17;;;0.70;;
9256;SDS011;4665;51.368;6.782;2023-03-24T16:22:43;1.77;;;1.30;;
9256;SDS011;4665;51.368;6.782;2023-03-24T16:25:08;1.90;;;1.30;;
9256;SDS011;4665;51.368;6.782;2023-03-24T16:27:34;1.63;;;1.23;;
9256;SDS011;4665;51.368;6.782;2023-03-24T16:29:59;2.27;;;1.33;;
9256;SDS011;4665;51.368;6.782;2023-03-24T16:32:24;1.17;;;0.93;;
9256;SDS011;4665;51.368;6.782;2023-03-24T16:34:50;1.10;;;0.90;;
9256;SDS011;4665;51.368;6.782;2023-03-24T16:37:15;1.47;;;1.10;;
9256;SDS011;4665;51.368;6.782;2023-03-24T16:39:40;2.47;;;0.60;;
9256;SDS011;4665;51.368;6.782;2023-03-24T16:42:06;1.93;;;1.10;;
9256;SDS011;4665;51.368;6.782;2023-03-24T16:44:31;1.63;;;0.83;;
9256;SDS011;4665;51.368;6.782;2023-03-24T16:46:57;2.67;;;1.20;;
9256;SDS011;4665;51.368;6.782;2023-03-24T16:49:22;0.80;;;0.80;;
9256;SDS011;4665;51.368;6.782;2023-03-24T16:51:48;2.27;;;1.20;;
9256;SDS011;4665;51.368;6.782;2023-03-24T16:54:14;2.43;;;0.93;;
9256;SDS011;4665;51.368;6.782;2023-03-24T16:56:39;1.97;;;1.10;;
9256;SDS011;4665;51.368;6.782;2023-03-24T16:59:05;3.87;;;1.10;;
9256;SDS011;4665;51.368;6.782;2023-03-24T17:04:09;2.80;;;0.80;;
9256;SDS011;4665;51.368;6.782;2023-03-24T17:06:39;1.97;;;1.20;;
9256;SDS011;4665;51.368;6.782;2023-03-24T17:09:06;1.53;;;0.80;;
9256;SDS011;4665;51.368;6.782;2023-03-24T17:11:33;2.67;;;1.37;;
9256;SDS011;4665;51.368;6.782;2023-03-24T17:14:01;1.13;;;0.87;;
9256;SDS011;4665;51.368;6.782;2023-03-24T17:16:29;1.50;;;1.10;;
9256;SDS011;4665;51.368;6.782;2023-03-24T17:19:00;1.53;;;0.80;;
9256;SDS011;4665;51.368;6.782;2023-03-24T17:21:26;2.77;;;1.50;;
9256;SDS011;4665;51.368;6.782;2023-03-24T17:23:52;2.60;;;1.17;;
9256;SDS011;4665;51.368;6.782;2023-03-24T17:26:19;2.60;;;1.03;;
9256;SDS011;4665;51.368;6.782;2023-03-24T17:28:47;2.10;;;0.80;;
9256;SDS011;4665;51.368;6.782;2023-03-24T17:31:12;0.70;;;0.70;;
9256;SDS011;4665;51.368;6.782;2023-03-24T17:33:38;1.23;;;0.90;;
9256;SDS011;4665;51.368;6.782;2023-03-24T17:36:03;0.93;;;0.67;;
9256;SDS011;4665;51.368;6.782;2023-03-24T17:38:29;2.23;;;1.17;;
9256;SDS011;4665;51.368;6.782;2023-03-24T17:40:58;1.80;;;0.97;;
9256;SDS011;4665;51.368;6.782;2023-03-24T17:43:25;1.53;;;0.97;;
9256;SDS011;4665;51.368;6.782;2023-03-24T17:45:51;1.83;;;1.07;;
9256;SDS011;4665;51.368;6.782;2023-03-24T17:48:20;1.60;;;1.10;;
9256;SDS011;4665;51.368;6.782;2023-03-24T17:50:45;1.63;;;0.80;;
9256;SDS011;4665;51.368;6.782;2023-03-24T17:53:12;1.50;;;1.10;;
9256;SDS011;4665;51.368;6.782;2023-03-24T17:55:41;0.83;;;0.83;;
9256;SDS011;4665;51.368;6.782;2023-03-24T17:58:06;3.47;;;1.20;;
9256;SDS011;4665;51.368;6.782;2023-03-24T18:00:32;4.07;;;1.40;;
9256;SDS011;4665;51.368;6.782;2023-03-24T18:02:57;1.43;;;1.30;;
9256;SDS011;4665;51.368;6.782;2023-03-24T18:05:22;1.57;;;1.10;;
9256;SDS011;4665;51.368;6.782;2023-03-24T18:07:48;1.13;;;0.87;;
9256;SDS011;4665;51.368;6.782;2023-03-24T18:10:13;2.70;;;1.13;;
9256;SDS011;4665;51.368;6.782;2023-03-24T18:12:39;1.40;;;1.30;;
9256;SDS011;4665;51.368;6.782;2023-03-24T18:15:05;2.17;;;1.33;;
9256;SDS011;4665;51.368;6.782;2023-03-24T18:17:31;1.63;;;1.07;;
9256;SDS011;4665;51.368;6.782;2023-03-24T18:19:57;2.23;;;1.20;;
9256;SDS011;4665;51.368;6.782;2023-03-24T18:22:28;1.03;;;1.03;;
9256;SDS011;4665;51.368;6.782;2023-03-24T18:24:53;1.67;;;1.40;;